Terminal Aerodrome Forecast
Issued by NWS

Home | Current Version | Previous Version | Text Only | Print | Product List | Glossary On
Versions: 1 2 3 4 5 6 7 8 9 10 11 12 13 14 15
000
FTUS43 KDLH 012339
TAFBRD
TAF
KBRD 012339Z 0200/0224 21009KT P6SM SCT050 SCT080
     FM020100 19004KT P6SM SCT060 SCT070 SCT250
     FM020500 VRB03KT P6SM SCT060 BKN160
     FM021400 33007KT P6SM VCSH FEW025 BKN100
     FM021900 34011G18KT P6SM SCT040 SCT100=

USA.gov is the U.S. government's official web portal to all federal, state and local government web resources and services.